createdAt,value
2018-10-02T00:00:43.633Z,98075.00
2018-10-02T00:03:14.692Z,98080.00
2018-10-02T00:05:45.556Z,98080.00
2018-10-02T00:08:16.142Z,98085.00
2018-10-02T00:10:51.490Z,98081.00
2018-10-02T00:13:27.986Z,98084.00
2018-10-02T00:15:58.513Z,98081.00
2018-10-02T00:18:28.471Z,98095.00
2018-10-02T00:20:58.950Z,98090.00
2018-10-02T00:23:29.603Z,98092.00
2018-10-02T00:26:00.190Z,98097.00
2018-10-02T00:28:30.736Z,98097.00
2018-10-02T00:31:00.997Z,98095.00
2018-10-02T00:33:31.447Z,98100.00
2018-10-02T00:36:02.025Z,98096.00
2018-10-02T00:41:07.185Z,98102.00
2018-10-02T00:43:37.399Z,98090.00
2018-10-02T00:46:08.317Z,98084.00
2018-10-02T00:48:38.474Z,98095.00
2018-10-02T00:51:08.758Z,98090.00
2018-10-02T00:53:38.984Z,98098.00
2018-10-02T00:56:09.059Z,98105.00
2018-10-02T00:58:39.386Z,98099.00
2018-10-02T01:01:09.675Z,98094.00
2018-10-02T01:03:39.954Z,98092.00
2018-10-02T01:06:10.043Z,98099.00
2018-10-02T01:08:40.136Z,98094.00
2018-10-02T01:11:09.938Z,98096.00
2018-10-02T01:13:40.955Z,98089.00
2018-10-02T01:16:10.933Z,98092.00
2018-10-02T01:18:41.849Z,98097.00
2018-10-02T01:21:12.059Z,98106.00
2018-10-02T01:23:42.372Z,98114.00
2018-10-02T01:26:12.601Z,98114.00
2018-10-02T01:28:42.924Z,98117.00
2018-10-02T01:31:13.031Z,98115.00
2018-10-02T01:33:44.125Z,98116.00
2018-10-02T01:36:15.201Z,98132.00
2018-10-02T01:38:45.321Z,98123.00
2018-10-02T01:41:15.657Z,98128.00
2018-10-02T01:43:45.849Z,98117.00
2018-10-02T01:46:15.993Z,98118.00
2018-10-02T01:48:46.184Z,98120.00
2018-10-02T01:51:16.967Z,98122.00
2018-10-02T01:53:48.987Z,98127.00
2018-10-02T01:56:19.269Z,98123.00
2018-10-02T01:58:50.020Z,98123.00
2018-10-02T02:01:20.203Z,98122.00
2018-10-02T02:06:25.391Z,98129.00
2018-10-02T02:08:56.117Z,98118.00
2018-10-02T02:11:26.356Z,98122.00
2018-10-02T02:13:56.933Z,98131.00
2018-10-02T02:16:27.387Z,98129.00
2018-10-02T02:18:57.499Z,98135.00
2018-10-02T02:21:27.639Z,98137.00
2018-10-02T02:23:58.722Z,98140.00
2018-10-02T02:26:29.368Z,98135.00
2018-10-02T02:29:00.172Z,98126.00
2018-10-02T02:31:30.888Z,98137.00
2018-10-02T02:34:01.241Z,98140.00
2018-10-02T02:36:32.089Z,98149.00
2018-10-02T02:39:02.194Z,98143.00
2018-10-02T02:41:32.646Z,98151.00
2018-10-02T02:44:02.658Z,98140.00
2018-10-02T02:46:33.429Z,98136.00
2018-10-02T02:49:08.760Z,98153.00
2018-10-02T02:51:39.008Z,98141.00
2018-10-02T02:54:09.563Z,98147.00
2018-10-02T02:56:39.906Z,98138.00
2018-10-02T02:59:10.080Z,98149.00
2018-10-02T03:01:40.433Z,98161.00
2018-10-02T03:04:10.731Z,98154.00
2018-10-02T03:06:41.032Z,98162.00
2018-10-02T03:09:11.312Z,98160.00
2018-10-02T03:11:41.581Z,98163.00
2018-10-02T03:14:12.089Z,98169.00
2018-10-02T03:16:42.917Z,98157.00
2018-10-02T03:19:13.983Z,98161.00
2018-10-02T03:21:44.361Z,98173.00
2018-10-02T03:24:18.702Z,98167.00
2018-10-02T03:26:49.222Z,98177.00
2018-10-02T03:29:19.426Z,98188.00
2018-10-02T03:31:49.960Z,98183.00
2018-10-02T03:34:20.100Z,98177.00
2018-10-02T03:36:50.502Z,98194.00
2018-10-02T03:39:20.987Z,98194.00
2018-10-02T03:41:51.283Z,98191.00
2018-10-02T03:44:21.801Z,98199.00
2018-10-02T03:46:51.940Z,98198.00
2018-10-02T03:49:22.914Z,98198.00
2018-10-02T03:51:53.274Z,98194.00
2018-10-02T03:54:23.543Z,98203.00
2018-10-02T03:56:54.398Z,98207.00
2018-10-02T03:59:24.679Z,98211.00
2018-10-02T04:01:55.045Z,98209.00
2018-10-02T04:04:25.273Z,98211.00
2018-10-02T04:06:59.478Z,98215.00
2018-10-02T04:09:29.501Z,98213.00
2018-10-02T04:12:00.742Z,98219.00
2018-10-02T04:14:31.061Z,98224.00
2018-10-02T04:17:01.400Z,98199.00
2018-10-02T04:19:32.397Z,98202.00
2018-10-02T04:22:02.605Z,98209.00
2018-10-02T04:24:33.595Z,98206.00
2018-10-02T04:27:04.023Z,98216.00
2018-10-02T04:29:34.929Z,98218.00
2018-10-02T04:32:05.386Z,98219.00
2018-10-02T04:34:35.706Z,98221.00
2018-10-02T04:37:07.060Z,98221.00
2018-10-02T04:39:37.692Z,98226.00
2018-10-02T04:42:07.894Z,98242.00
2018-10-02T04:44:37.992Z,98242.00
2018-10-02T04:47:08.332Z,98249.00
2018-10-02T04:49:39.191Z,98249.00
2018-10-02T04:52:09.555Z,98251.00
2018-10-02T04:54:39.736Z,98249.00
2018-10-02T04:59:47.829Z,98262.00
2018-10-02T05:04:53.372Z,98248.00
2018-10-02T05:07:23.792Z,98260.00
2018-10-02T05:09:54.317Z,98256.00
2018-10-02T05:12:25.419Z,98259.00
2018-10-02T05:14:56.151Z,98257.00
2018-10-02T05:17:30.371Z,98271.00
2018-10-02T05:20:00.552Z,98268.00
2018-10-02T05:22:31.340Z,98274.00
2018-10-02T05:25:01.666Z,98276.00
2018-10-02T05:27:32.007Z,98277.00
2018-10-02T05:30:02.451Z,98275.00
2018-10-02T05:32:32.921Z,98272.00
2018-10-02T05:35:03.258Z,98275.00
2018-10-02T05:37:33.574Z,98279.00
2018-10-02T05:40:03.826Z,98280.00
2018-10-02T05:42:36.154Z,98282.00
2018-10-02T05:45:07.952Z,98294.00
2018-10-02T05:47:38.285Z,98297.00
2018-10-02T05:52:44.977Z,98305.00
2018-10-02T05:55:15.191Z,98311.00
2018-10-02T05:57:45.507Z,98312.00
2018-10-02T06:00:15.501Z,98322.00
2018-10-02T06:02:46.722Z,98341.00
2018-10-02T06:05:17.081Z,98334.00
2018-10-02T06:07:47.426Z,98337.00
2018-10-02T06:10:17.994Z,98333.00
2018-10-02T06:12:48.375Z,98338.00
2018-10-02T06:15:18.925Z,98343.00
2018-10-02T06:17:49.817Z,98345.00
2018-10-02T06:20:20.091Z,98348.00
2018-10-02T06:22:50.486Z,98343.00
2018-10-02T06:25:21.273Z,98340.00
2018-10-02T06:27:51.431Z,98341.00
2018-10-02T06:30:21.881Z,98349.00
2018-10-02T06:32:53.116Z,98353.00
2018-10-02T06:35:23.588Z,98351.00
2018-10-02T06:37:53.888Z,98361.00
2018-10-02T06:40:24.184Z,98361.00
2018-10-02T06:42:54.492Z,98374.00
2018-10-02T06:45:24.719Z,98364.00
2018-10-02T06:47:55.687Z,98369.00
2018-10-02T06:50:26.269Z,98371.00
2018-10-02T06:52:56.437Z,98360.00
2018-10-02T06:55:26.550Z,98354.00
2018-10-02T06:57:56.750Z,98354.00
2018-10-02T07:00:27.043Z,98371.00
2018-10-02T07:02:57.752Z,98371.00
2018-10-02T07:05:28.223Z,98372.00
2018-10-02T07:07:58.373Z,98385.00
2018-10-02T07:10:28.449Z,98387.00
2018-10-02T07:12:58.648Z,98385.00
2018-10-02T07:18:04.853Z,98393.00
2018-10-02T07:20:35.561Z,98398.00
2018-10-02T07:23:06.898Z,98400.00
2018-10-02T07:25:37.362Z,98393.00
2018-10-02T07:28:07.817Z,98401.00
2018-10-02T07:30:37.992Z,98393.00
2018-10-02T07:33:08.143Z,98403.00
2018-10-02T07:35:38.445Z,98405.00
2018-10-02T07:38:08.798Z,98410.00
2018-10-02T07:40:39.347Z,98408.00
2018-10-02T07:43:10.068Z,98414.00
2018-10-02T07:45:40.291Z,98407.00
2018-10-02T07:48:10.235Z,98408.00
2018-10-02T07:50:40.647Z,98411.00
2018-10-02T07:53:10.768Z,98420.00
2018-10-02T07:55:40.924Z,98423.00
2018-10-02T07:58:11.084Z,98432.00
2018-10-02T08:00:41.598Z,98425.00
2018-10-02T08:03:11.693Z,98425.00
2018-10-02T08:05:41.847Z,98428.00
2018-10-02T08:08:13.063Z,98435.00
2018-10-02T08:10:43.340Z,98427.00
2018-10-02T08:13:13.630Z,98424.00
2018-10-02T08:15:45.145Z,98425.00
2018-10-02T08:18:15.401Z,98429.00
2018-10-02T08:20:49.847Z,98441.00
2018-10-02T08:23:19.999Z,98439.00
2018-10-02T08:25:50.858Z,98437.00
2018-10-02T08:28:24.897Z,98432.00
2018-10-02T08:30:55.178Z,98435.00
2018-10-02T08:33:25.206Z,98434.00
2018-10-02T08:35:55.194Z,98428.00
2018-10-02T08:38:25.241Z,98433.00
2018-10-02T08:40:55.121Z,98430.00
2018-10-02T08:43:28.028Z,98430.00
2018-10-02T08:45:57.832Z,98426.00
2018-10-02T08:48:27.864Z,98426.00
2018-10-02T08:50:57.714Z,98426.00
2018-10-02T08:53:27.912Z,98427.00
2018-10-02T08:55:57.664Z,98425.00
2018-10-02T08:58:27.843Z,98428.00
2018-10-02T09:00:58.677Z,98427.00
2018-10-02T09:03:28.953Z,98418.00
2018-10-02T09:05:58.769Z,98415.00
2018-10-02T09:08:29.202Z,98408.00
2018-10-02T09:10:59.760Z,98416.00
2018-10-02T09:13:29.999Z,98425.00
2018-10-02T09:16:00.737Z,98429.00
2018-10-02T09:18:30.903Z,98425.00
2018-10-02T09:21:00.883Z,98428.00
2018-10-02T09:23:31.128Z,98419.00
2018-10-02T09:26:01.086Z,98417.00
2018-10-02T09:28:31.537Z,98411.00
2018-10-02T09:31:06.612Z,98419.00
2018-10-02T09:33:45.978Z,98410.00
2018-10-02T09:36:21.285Z,98415.00
2018-10-02T09:38:57.195Z,98407.00
2018-10-02T09:41:32.082Z,98413.00
2018-10-02T09:44:03.631Z,98412.00
2018-10-02T09:46:33.828Z,98414.00
2018-10-02T09:49:04.204Z,98418.00
2018-10-02T09:51:34.227Z,98416.00
2018-10-02T09:54:06.264Z,98416.00
2018-10-02T09:56:43.796Z,98416.00
2018-10-02T09:59:14.996Z,98425.00
2018-10-02T10:01:50.259Z,98421.00
2018-10-02T10:04:20.876Z,98420.00
2018-10-02T10:06:50.625Z,98422.00
2018-10-02T10:09:21.405Z,98411.00
2018-10-02T10:11:51.432Z,98415.00
2018-10-02T10:14:21.730Z,98414.00
2018-10-02T10:16:52.004Z,98413.00
2018-10-02T10:19:22.349Z,98423.00
2018-10-02T10:21:52.314Z,98417.00
2018-10-02T10:24:22.307Z,98420.00
2018-10-02T10:26:52.440Z,98420.00
2018-10-02T10:29:22.774Z,98413.00
2018-10-02T10:31:52.856Z,98416.00
2018-10-02T10:34:22.747Z,98420.00
2018-10-02T10:36:52.765Z,98426.00
2018-10-02T10:39:27.364Z,98419.00
2018-10-02T10:41:57.298Z,98415.00
2018-10-02T10:44:27.615Z,98421.00
2018-10-02T10:46:57.864Z,98412.00
2018-10-02T10:49:28.512Z,98421.00
2018-10-02T10:51:59.240Z,98417.00
2018-10-02T10:57:04.073Z,98423.00
2018-10-02T10:59:34.995Z,98425.00
2018-10-02T11:02:05.213Z,98435.00
2018-10-02T11:04:35.135Z,98425.00
2018-10-02T11:07:05.364Z,98426.00
2018-10-02T11:09:35.512Z,98408.00
2018-10-02T11:14:46.517Z,98399.00
2018-10-02T11:17:16.681Z,98405.00
2018-10-02T11:19:46.629Z,98405.00
2018-10-02T11:22:16.663Z,98410.00
2018-10-02T11:24:53.391Z,98416.00
2018-10-02T11:27:23.288Z,98415.00
2018-10-02T11:29:53.561Z,98419.00
2018-10-02T11:32:23.428Z,98405.00
2018-10-02T11:34:53.512Z,98420.00
2018-10-02T11:37:23.631Z,98401.00
2018-10-02T11:39:54.259Z,98404.00
2018-10-02T11:42:24.278Z,98413.00
2018-10-02T11:44:54.549Z,98398.00
2018-10-02T11:47:24.616Z,98423.00
2018-10-02T11:49:55.541Z,98413.00
2018-10-02T11:52:26.157Z,98388.00
2018-10-02T11:54:56.217Z,98380.00
2018-10-02T11:57:26.795Z,98399.00
2018-10-02T11:59:56.825Z,98389.00
2018-10-02T12:02:26.972Z,98392.00
2018-10-02T12:04:57.213Z,98390.00
2018-10-02T12:07:27.325Z,98392.00
2018-10-02T12:09:57.461Z,98398.00
2018-10-02T12:12:28.018Z,98398.00
2018-10-02T12:14:58.119Z,98388.00
2018-10-02T12:17:28.237Z,98396.00
2018-10-02T12:19:58.494Z,98410.00
2018-10-02T12:22:28.587Z,98407.00
2018-10-02T12:24:59.317Z,98395.00
2018-10-02T12:27:29.793Z,98395.00
2018-10-02T12:30:00.342Z,98396.00
2018-10-02T12:32:30.333Z,98394.00
2018-10-02T12:35:00.636Z,98392.00
2018-10-02T12:37:30.990Z,98391.00
2018-10-02T12:40:01.299Z,98394.00
2018-10-02T12:42:31.413Z,98400.00
2018-10-02T12:45:01.467Z,98394.00
2018-10-02T12:47:31.510Z,98397.00
2018-10-02T12:50:02.541Z,98386.00
2018-10-02T12:52:33.000Z,98395.00
2018-10-02T12:57:38.403Z,98387.00
2018-10-02T13:00:08.745Z,98383.00
2018-10-02T13:02:38.893Z,98372.00
2018-10-02T13:07:44.443Z,98379.00
2018-10-02T13:10:14.550Z,98407.00
2018-10-02T13:12:44.512Z,98384.00
2018-10-02T13:15:15.404Z,98383.00
2018-10-02T13:17:45.561Z,98383.00
2018-10-02T13:20:15.729Z,98378.00
2018-10-02T13:25:20.731Z,98376.00
2018-10-02T13:27:50.972Z,98358.00
2018-10-02T13:30:21.298Z,98342.00
2018-10-02T13:32:51.314Z,98329.00
2018-10-02T13:35:21.462Z,98325.00
2018-10-02T13:37:51.831Z,98346.00
2018-10-02T13:40:22.404Z,98335.00
2018-10-02T13:45:27.449Z,98339.00
2018-10-02T13:47:58.371Z,98325.00
2018-10-02T13:50:28.525Z,98321.00
2018-10-02T13:52:58.515Z,98321.00
2018-10-02T13:55:29.106Z,98318.00
2018-10-02T13:57:59.295Z,98324.00
2018-10-02T14:00:29.590Z,98326.00
2018-10-02T14:03:00.944Z,98337.00
2018-10-02T14:05:31.220Z,98347.00
2018-10-02T14:08:01.264Z,98332.00
2018-10-02T14:10:32.756Z,98328.00
2018-10-02T14:13:03.654Z,98328.00
2018-10-02T14:15:33.798Z,98326.00
2018-10-02T14:18:04.340Z,98329.00
2018-10-02T14:23:09.303Z,98323.00
2018-10-02T14:25:39.513Z,98334.00
2018-10-02T14:28:09.796Z,98332.00
2018-10-02T14:30:40.035Z,98334.00
2018-10-02T14:33:10.026Z,98324.00
2018-10-02T14:35:40.224Z,98332.00
2018-10-02T14:38:10.161Z,98329.00
2018-10-02T14:40:40.328Z,98334.00
2018-10-02T14:43:11.128Z,98334.00
2018-10-02T14:45:41.061Z,98332.00
2018-10-02T14:48:11.094Z,98329.00
2018-10-02T14:50:42.161Z,98333.00
2018-10-02T14:53:13.556Z,98336.00
2018-10-02T14:55:43.692Z,98330.00
2018-10-02T14:58:14.043Z,98329.00
2018-10-02T15:03:18.830Z,98324.00
2018-10-02T15:05:49.353Z,98324.00
2018-10-02T15:08:19.522Z,98320.00
2018-10-02T15:10:50.206Z,98337.00
2018-10-02T15:13:20.330Z,98332.00
2018-10-02T15:15:51.409Z,98336.00
2018-10-02T15:18:21.920Z,98329.00
2018-10-02T15:20:54.675Z,98326.00
2018-10-02T15:23:24.966Z,98326.00
2018-10-02T15:25:55.265Z,98323.00
2018-10-02T15:28:25.611Z,98328.00
2018-10-02T15:30:56.246Z,98326.00
2018-10-02T15:33:26.538Z,98313.00
2018-10-02T15:35:56.688Z,98331.00
2018-10-02T15:38:27.079Z,98334.00
2018-10-02T15:43:32.832Z,98327.00
2018-10-02T15:46:03.019Z,98326.00
2018-10-02T15:48:33.457Z,98324.00
2018-10-02T15:51:03.662Z,98324.00
2018-10-02T15:53:34.865Z,98330.00
2018-10-02T15:56:04.896Z,98330.00
2018-10-02T15:58:35.661Z,98335.00
2018-10-02T16:01:07.361Z,98337.00
2018-10-02T16:06:13.367Z,98333.00
2018-10-02T16:08:43.769Z,98345.00
2018-10-02T16:11:14.409Z,98343.00
2018-10-02T16:13:45.286Z,98339.00
2018-10-02T16:16:15.786Z,98340.00
2018-10-02T16:18:46.409Z,98343.00
2018-10-02T16:21:16.769Z,98348.00
2018-10-02T16:23:46.970Z,98341.00
2018-10-02T16:26:17.323Z,98334.00
2018-10-02T16:28:47.465Z,98340.00
2018-10-02T16:31:17.918Z,98340.00
2018-10-02T16:33:47.799Z,98337.00
2018-10-02T16:36:17.826Z,98334.00
2018-10-02T16:38:48.098Z,98343.00
2018-10-02T16:41:18.819Z,98334.00
2018-10-02T16:43:49.095Z,98327.00
2018-10-02T16:46:20.314Z,98335.00
2018-10-02T16:48:51.211Z,98333.00
2018-10-02T16:53:56.288Z,98341.00
2018-10-02T16:56:26.976Z,98345.00
2018-10-02T16:58:57.674Z,98345.00
2018-10-02T17:01:27.698Z,98340.00
2018-10-02T17:03:58.576Z,98342.00
2018-10-02T17:06:28.770Z,98341.00
2018-10-02T17:08:59.373Z,98342.00
2018-10-02T17:11:29.414Z,98344.00
2018-10-02T17:13:59.505Z,98338.00
2018-10-02T17:16:29.731Z,98336.00
2018-10-02T17:18:59.999Z,98339.00
2018-10-02T17:21:30.087Z,98338.00
2018-10-02T17:24:00.295Z,98339.00
2018-10-02T17:26:34.940Z,98339.00
2018-10-02T17:29:05.052Z,98337.00
2018-10-02T17:31:35.184Z,98335.00
2018-10-02T17:34:06.841Z,98327.00
2018-10-02T17:36:41.165Z,98323.00
2018-10-02T17:39:12.131Z,98327.00
2018-10-02T17:41:42.868Z,98322.00
2018-10-02T17:44:13.479Z,98333.00
2018-10-02T17:46:43.576Z,98333.00
2018-10-02T17:49:15.843Z,98323.00
2018-10-02T17:51:46.520Z,98332.00
2018-10-02T17:54:17.477Z,98326.00
2018-10-02T17:56:47.942Z,98321.00
2018-10-02T17:59:18.908Z,98318.00
2018-10-02T18:01:49.075Z,98326.00
2018-10-02T18:04:19.360Z,98329.00
2018-10-02T18:06:50.493Z,98334.00
2018-10-02T18:09:20.800Z,98338.00
2018-10-02T18:11:50.903Z,98338.00
2018-10-02T18:14:21.056Z,98341.00
2018-10-02T18:16:57.915Z,98343.00
2018-10-02T18:19:28.429Z,98341.00
2018-10-02T18:21:59.236Z,98343.00
2018-10-02T18:24:30.041Z,98338.00
2018-10-02T18:27:00.361Z,98337.00
2018-10-02T18:29:30.599Z,98338.00
2018-10-02T18:32:01.097Z,98335.00
2018-10-02T18:34:32.329Z,98327.00
2018-10-02T18:37:03.320Z,98324.00
2018-10-02T18:39:33.851Z,98326.00
2018-10-02T18:42:04.168Z,98322.00
2018-10-02T18:44:34.291Z,98319.00
2018-10-02T18:47:04.466Z,98325.00
2018-10-02T18:49:36.694Z,98319.00
2018-10-02T18:52:07.083Z,98316.00
2018-10-02T18:54:37.232Z,98319.00
2018-10-02T18:57:07.248Z,98317.00
2018-10-02T18:59:38.377Z,98319.00
2018-10-02T19:02:09.319Z,98320.00
2018-10-02T19:04:39.609Z,98315.00
2018-10-02T19:07:09.797Z,98314.00
2018-10-02T19:09:40.105Z,98314.00
2018-10-02T19:14:46.581Z,98303.00
2018-10-02T19:17:17.033Z,98302.00
2018-10-02T19:19:52.290Z,98306.00
2018-10-02T19:22:22.723Z,98303.00
2018-10-02T19:24:53.334Z,98310.00
2018-10-02T19:27:23.283Z,98295.00
2018-10-02T19:29:58.599Z,98293.00
2018-10-02T19:32:29.290Z,98289.00
2018-10-02T19:35:03.595Z,98290.00
2018-10-02T19:37:38.866Z,98286.00
2018-10-02T19:40:09.956Z,98287.00
2018-10-02T19:42:40.187Z,98289.00
2018-10-02T19:45:15.879Z,98289.00
2018-10-02T19:50:21.569Z,98287.00
2018-10-02T19:52:51.648Z,98277.00
2018-10-02T19:55:22.517Z,98276.00
2018-10-02T19:57:52.984Z,98282.00
2018-10-02T20:00:23.622Z,98274.00
2018-10-02T20:02:53.759Z,98265.00
2018-10-02T20:05:23.881Z,98269.00
2018-10-02T20:07:54.473Z,98269.00
2018-10-02T20:10:25.321Z,98267.00
2018-10-02T20:12:55.778Z,98262.00
2018-10-02T20:15:26.292Z,98264.00
2018-10-02T20:17:56.370Z,98257.00
2018-10-02T20:20:26.787Z,98258.00
2018-10-02T20:22:57.106Z,98259.00
2018-10-02T20:25:27.240Z,98248.00
2018-10-02T20:27:57.455Z,98260.00
2018-10-02T20:30:27.689Z,98254.00
2018-10-02T20:32:58.211Z,98247.00
2018-10-02T20:35:28.606Z,98244.00
2018-10-02T20:37:59.472Z,98235.00
2018-10-02T20:40:30.234Z,98237.00
2018-10-02T20:43:00.571Z,98239.00
2018-10-02T20:45:30.619Z,98239.00
2018-10-02T20:48:00.694Z,98247.00
2018-10-02T20:50:30.905Z,98250.00
2018-10-02T20:53:01.017Z,98236.00
2018-10-02T20:55:31.165Z,98232.00
2018-10-02T20:58:01.456Z,98221.00
2018-10-02T21:00:31.666Z,98211.00
2018-10-02T21:03:02.103Z,98220.00
2018-10-02T21:05:32.128Z,98213.00
2018-10-02T21:08:02.342Z,98211.00
2018-10-02T21:10:32.565Z,98210.00
2018-10-02T21:13:02.780Z,98219.00
2018-10-02T21:15:33.078Z,98209.00
2018-10-02T21:18:03.397Z,98208.00
2018-10-02T21:20:33.792Z,98204.00
2018-10-02T21:23:05.699Z,98197.00
2018-10-02T21:25:36.751Z,98201.00
2018-10-02T21:28:07.141Z,98200.00
2018-10-02T21:30:37.283Z,98200.00
2018-10-02T21:33:08.222Z,98199.00
2018-10-02T21:35:38.311Z,98193.00
2018-10-02T21:38:08.588Z,98196.00
2018-10-02T21:40:38.926Z,98189.00
2018-10-02T21:43:09.260Z,98194.00
2018-10-02T21:45:40.465Z,98190.00
2018-10-02T21:48:10.398Z,98186.00
2018-10-02T21:50:40.817Z,98182.00
2018-10-02T21:53:11.769Z,98178.00
2018-10-02T21:55:42.309Z,98173.00
2018-10-02T21:58:12.634Z,98179.00
2018-10-02T22:00:42.728Z,98177.00
2018-10-02T22:03:16.800Z,98177.00
2018-10-02T22:05:46.836Z,98179.00
2018-10-02T22:08:17.067Z,98169.00
2018-10-02T22:10:47.320Z,98171.00
2018-10-02T22:13:17.726Z,98178.00
2018-10-02T22:15:48.675Z,98163.00
2018-10-02T22:18:19.708Z,98168.00
2018-10-02T22:20:49.788Z,98165.00
2018-10-02T22:23:20.004Z,98159.00
2018-10-02T22:25:50.296Z,98156.00
2018-10-02T22:28:20.542Z,98160.00
2018-10-02T22:30:50.715Z,98160.00
2018-10-02T22:35:56.819Z,98154.00
2018-10-02T22:38:27.074Z,98152.00
2018-10-02T22:40:58.126Z,98144.00
2018-10-02T22:43:35.405Z,98150.00
2018-10-02T22:46:08.091Z,98141.00
2018-10-02T22:48:38.681Z,98145.00
2018-10-02T22:51:08.800Z,98141.00
2018-10-02T22:53:38.933Z,98145.00
2018-10-02T22:56:09.506Z,98144.00
2018-10-02T22:58:39.750Z,98139.00
2018-10-02T23:01:09.738Z,98133.00
2018-10-02T23:03:40.450Z,98140.00
2018-10-02T23:06:10.395Z,98134.00
2018-10-02T23:11:16.198Z,98139.00
2018-10-02T23:13:46.584Z,98134.00
2018-10-02T23:16:17.009Z,98134.00
2018-10-02T23:18:47.890Z,98129.00
2018-10-02T23:21:18.059Z,98142.00
2018-10-02T23:23:48.663Z,98143.00
2018-10-02T23:26:25.357Z,98135.00
2018-10-02T23:28:55.639Z,98132.00
2018-10-02T23:31:26.481Z,98142.00
2018-10-02T23:33:56.722Z,98146.00
2018-10-02T23:36:27.150Z,98138.00
2018-10-02T23:38:57.395Z,98132.00
2018-10-02T23:41:28.180Z,98145.00
2018-10-02T23:43:58.399Z,98149.00
2018-10-02T23:46:28.667Z,98156.00
2018-10-02T23:48:59.072Z,98134.00
2018-10-02T23:51:29.169Z,98137.00
2018-10-02T23:54:03.774Z,98138.00
2018-10-02T23:56:33.968Z,98131.00
2018-10-02T23:59:04.232Z,98116.00
